createdAt,value
2023-02-14T00:01:10.121Z,48.08
2023-02-14T00:03:37.894Z,43.88
2023-02-14T00:06:08.971Z,50.70
2023-02-14T00:08:36.662Z,48.63
2023-02-14T00:11:04.427Z,48.33
2023-02-14T00:13:31.412Z,50.65
2023-02-14T00:15:58.498Z,50.25
2023-02-14T00:18:45.280Z,46.53
2023-02-14T00:21:12.117Z,44.38
2023-02-14T00:23:42.854Z,43.13
2023-02-14T00:26:15.825Z,44.28
2023-02-14T00:28:43.146Z,40.95
2023-02-14T00:31:10.083Z,38.93
2023-02-14T00:33:37.685Z,45.95
2023-02-14T00:36:06.893Z,42.97
2023-02-14T00:38:34.508Z,42.63
2023-02-14T00:41:02.162Z,46.60
2023-02-14T00:43:29.598Z,41.00
2023-02-14T00:45:56.876Z,43.67
2023-02-14T00:48:23.874Z,44.88
2023-02-14T00:50:50.605Z,44.00
2023-02-14T00:53:17.334Z,55.83
2023-02-14T00:55:46.370Z,50.83
2023-02-14T00:58:13.131Z,46.47
2023-02-14T01:00:40.074Z,83.38
2023-02-14T01:03:06.820Z,48.92
2023-02-14T01:05:33.553Z,56.35
2023-02-14T01:08:00.262Z,84.10
2023-02-14T01:10:27.008Z,114.97
2023-02-14T01:12:53.872Z,105.60
2023-02-14T01:15:20.659Z,135.10
2023-02-14T01:17:47.480Z,111.05
2023-02-14T01:20:14.770Z,142.97
2023-02-14T01:22:41.689Z,127.68
2023-02-14T01:25:08.503Z,73.43
2023-02-14T01:27:35.500Z,58.55
2023-02-14T01:30:02.318Z,57.25
2023-02-14T01:32:31.925Z,50.67
2023-02-14T01:34:59.074Z,66.40
2023-02-14T01:37:26.424Z,83.30
2023-02-14T01:39:53.154Z,103.75
2023-02-14T01:42:19.941Z,112.20
2023-02-14T01:44:49.420Z,189.17
2023-02-14T01:47:17.534Z,104.60
2023-02-14T01:49:50.302Z,81.85
2023-02-14T01:52:25.810Z,69.35
2023-02-14T01:54:56.366Z,92.55
2023-02-14T01:57:24.720Z,96.03
2023-02-14T01:59:55.134Z,98.15
2023-02-14T02:02:23.978Z,111.45
2023-02-14T02:04:56.004Z,88.70
2023-02-14T02:07:25.819Z,66.18
2023-02-14T02:09:56.682Z,66.50
2023-02-14T02:12:23.870Z,79.32
2023-02-14T02:14:53.908Z,83.03
2023-02-14T02:17:43.719Z,69.05
2023-02-14T02:20:28.996Z,55.88
2023-02-14T02:23:08.560Z,73.30
2023-02-14T02:25:56.408Z,97.28
2023-02-14T02:28:41.475Z,57.63
2023-02-14T02:31:30.012Z,80.60
2023-02-14T02:34:08.718Z,66.03
2023-02-14T02:36:38.263Z,55.40
2023-02-14T02:39:36.325Z,44.00
2023-02-14T02:42:50.429Z,47.90
2023-02-14T02:45:29.498Z,52.63
2023-02-14T02:48:21.943Z,68.90
2023-02-14T02:51:14.275Z,89.23
2023-02-14T02:53:45.074Z,71.95
2023-02-14T02:56:41.567Z,95.63
2023-02-14T02:59:25.490Z,187.82
2023-02-14T03:02:04.250Z,202.88
2023-02-14T03:04:52.418Z,111.30
2023-02-14T03:07:38.995Z,160.48
2023-02-14T03:10:07.182Z,247.77
2023-02-14T03:12:33.879Z,164.60
2023-02-14T03:15:31.137Z,178.63
2023-02-14T03:21:21.948Z,162.53
2023-02-14T03:24:07.472Z,203.05
2023-02-14T03:26:51.118Z,188.98
2023-02-14T03:29:46.689Z,210.18
2023-02-14T03:32:42.317Z,146.75
2023-02-14T03:35:12.088Z,125.07
2023-02-14T03:37:49.482Z,132.57
2023-02-14T03:40:27.363Z,113.70
2023-02-14T03:43:12.357Z,106.78
2023-02-14T03:45:51.568Z,142.93
2023-02-14T03:48:21.508Z,111.43
2023-02-14T03:50:50.363Z,151.65
2023-02-14T03:53:23.778Z,147.00
2023-02-14T03:56:13.998Z,103.03
2023-02-14T03:58:45.642Z,175.73
2023-02-14T04:01:24.613Z,165.60
2023-02-14T04:03:53.872Z,141.82
2023-02-14T04:06:21.274Z,98.63
2023-02-14T04:08:48.110Z,94.93
2023-02-14T04:11:15.039Z,87.10
2023-02-14T04:13:41.708Z,79.33
2023-02-14T04:16:08.709Z,82.28
2023-02-14T04:18:54.188Z,71.85
2023-02-14T04:21:20.921Z,67.80
2023-02-14T04:23:47.649Z,69.10
2023-02-14T04:26:14.606Z,67.77
2023-02-14T04:28:41.376Z,87.55
2023-02-14T04:31:08.250Z,65.00
2023-02-14T04:33:34.991Z,91.55
2023-02-14T04:36:02.018Z,62.35
2023-02-14T04:38:29.009Z,61.63
2023-02-14T04:40:55.797Z,128.10
2023-02-14T04:43:22.479Z,75.50
2023-02-14T04:45:49.277Z,60.22
2023-02-14T04:48:15.967Z,76.45
2023-02-14T04:50:43.265Z,70.57
2023-02-14T04:53:10.071Z,63.08
2023-02-14T04:55:36.852Z,87.47
2023-02-14T04:58:03.577Z,78.82
2023-02-14T05:00:30.355Z,74.82
2023-02-14T05:02:57.135Z,71.13
2023-02-14T05:05:23.873Z,75.97
2023-02-14T05:07:50.558Z,63.40
2023-02-14T05:10:17.486Z,58.70
2023-02-14T05:12:44.202Z,75.75
2023-02-14T05:15:11.046Z,53.57
2023-02-14T05:17:37.834Z,71.03
2023-02-14T05:20:05.861Z,39.70
2023-02-14T05:22:32.589Z,48.92
2023-02-14T05:24:59.282Z,68.50
2023-02-14T05:27:25.962Z,76.73
2023-02-14T05:29:52.736Z,65.70
2023-02-14T05:32:19.524Z,78.90
2023-02-14T05:34:46.296Z,80.70
2023-02-14T05:37:12.992Z,78.72
2023-02-14T05:39:39.754Z,61.23
2023-02-14T05:42:06.447Z,102.28
2023-02-14T05:44:33.171Z,83.72
2023-02-14T05:47:00.048Z,65.95
2023-02-14T05:49:26.780Z,112.93
2023-02-14T05:51:53.607Z,131.57
2023-02-14T05:54:20.324Z,83.05
2023-02-14T05:56:47.067Z,72.95
2023-02-14T05:59:14.574Z,79.45
2023-02-14T06:01:41.324Z,90.30
2023-02-14T06:04:08.155Z,71.93
2023-02-14T06:06:36.690Z,97.50
2023-02-14T06:09:03.902Z,47.92
2023-02-14T06:11:30.750Z,56.88
2023-02-14T06:14:02.358Z,76.53
2023-02-14T06:16:29.135Z,65.00
2023-02-14T06:18:55.926Z,51.45
2023-02-14T06:21:22.805Z,64.90
2023-02-14T06:23:49.520Z,47.97
2023-02-14T06:26:16.187Z,54.13
2023-02-14T06:28:42.998Z,63.70
2023-02-14T06:31:16.562Z,53.55
2023-02-14T06:33:43.455Z,52.95
2023-02-14T06:36:10.756Z,47.17
2023-02-14T06:38:37.502Z,52.30
2023-02-14T06:41:11.764Z,33.87
2023-02-14T06:43:38.578Z,44.70
2023-02-14T06:46:05.501Z,39.83
2023-02-14T06:48:32.681Z,48.13
2023-02-14T06:50:59.738Z,33.08
2023-02-14T06:53:26.778Z,33.77
2023-02-14T06:55:53.553Z,32.92
2023-02-14T06:58:20.520Z,35.75
2023-02-14T07:00:48.257Z,32.58
2023-02-14T07:03:15.684Z,34.60
2023-02-14T07:05:45.073Z,34.27
2023-02-14T07:08:11.877Z,35.67
2023-02-14T07:10:38.866Z,35.63
2023-02-14T07:13:05.949Z,30.67
2023-02-14T07:15:36.226Z,34.30
2023-02-14T07:18:03.284Z,33.37
2023-02-14T07:20:30.190Z,36.00
2023-02-14T07:22:57.105Z,37.92
2023-02-14T07:25:23.923Z,34.33
2023-02-14T07:27:51.752Z,35.15
2023-02-14T07:30:18.601Z,34.97
2023-02-14T07:32:45.358Z,38.47
2023-02-14T07:35:14.359Z,38.92
2023-02-14T07:37:41.805Z,41.63
2023-02-14T07:40:14.724Z,44.92
2023-02-14T07:42:54.732Z,40.80
2023-02-14T07:45:22.554Z,43.70
2023-02-14T07:47:51.817Z,43.95
2023-02-14T07:50:19.428Z,43.28
2023-02-14T07:52:46.476Z,42.47
2023-02-14T07:55:13.889Z,49.23
2023-02-14T07:57:40.671Z,43.83
2023-02-14T08:00:08.494Z,46.08
2023-02-14T08:02:35.944Z,48.47
2023-02-14T08:05:03.602Z,53.58
2023-02-14T08:07:30.417Z,55.67
2023-02-14T08:09:57.142Z,56.92
2023-02-14T08:12:42.309Z,59.45
2023-02-14T08:15:27.926Z,63.70
2023-02-14T08:17:56.711Z,59.45
2023-02-14T08:20:23.391Z,59.93
2023-02-14T08:22:50.171Z,70.93
2023-02-14T08:25:16.891Z,78.05
2023-02-14T08:27:43.624Z,77.05
2023-02-14T08:30:10.725Z,76.38
2023-02-14T08:32:37.629Z,78.40
2023-02-14T08:35:04.929Z,75.90
2023-02-14T08:37:31.695Z,75.47
2023-02-14T08:39:58.443Z,75.57
2023-02-14T08:42:25.292Z,67.32
2023-02-14T08:44:51.988Z,72.60
2023-02-14T08:47:18.849Z,74.28
2023-02-14T08:49:45.542Z,79.65
2023-02-14T08:52:12.297Z,75.03
2023-02-14T08:54:39.043Z,72.90
2023-02-14T08:57:05.874Z,75.10
2023-02-14T08:59:32.551Z,76.57
2023-02-14T09:01:59.365Z,79.55
2023-02-14T09:04:26.172Z,71.75
2023-02-14T09:06:52.947Z,77.38
2023-02-14T09:09:21.792Z,76.20
2023-02-14T09:11:48.513Z,72.80
2023-02-14T09:14:16.371Z,67.32
2023-02-14T09:16:43.335Z,68.20
2023-02-14T09:19:10.240Z,69.47
2023-02-14T09:21:36.969Z,63.10
2023-02-14T09:24:04.014Z,66.03
2023-02-14T09:26:30.727Z,61.78
2023-02-14T09:28:57.626Z,61.97
2023-02-14T09:31:25.420Z,62.55
2023-02-14T09:34:11.135Z,61.80
2023-02-14T09:36:38.295Z,64.78
2023-02-14T09:39:05.234Z,62.10
2023-02-14T09:41:54.047Z,61.22
2023-02-14T09:44:29.296Z,59.40
2023-02-14T09:47:00.667Z,59.67
2023-02-14T09:49:36.069Z,58.88
2023-02-14T09:52:04.735Z,59.30
2023-02-14T09:54:34.755Z,52.15
2023-02-14T09:57:11.444Z,58.72
2023-02-14T09:59:47.119Z,53.17
2023-02-14T10:02:38.630Z,57.67
2023-02-14T10:05:23.815Z,54.78
2023-02-14T10:07:56.524Z,56.58
2023-02-14T10:10:28.613Z,55.83
2023-02-14T10:13:03.578Z,52.23
2023-02-14T10:15:49.362Z,53.78
2023-02-14T10:18:26.698Z,53.70
2023-02-14T10:20:58.203Z,54.80
2023-02-14T10:23:40.793Z,47.10
2023-02-14T10:26:16.091Z,51.30
2023-02-14T10:28:45.191Z,50.70
2023-02-14T10:31:11.889Z,46.80
2023-02-14T10:33:40.558Z,49.65
2023-02-14T10:36:39.783Z,50.20
2023-02-14T10:40:04.965Z,53.03
2023-02-14T10:42:55.554Z,51.05
2023-02-14T10:45:32.663Z,49.17
2023-02-14T10:48:13.360Z,46.58
2023-02-14T10:51:33.459Z,47.75
2023-02-14T10:54:15.043Z,46.83
2023-02-14T10:56:47.623Z,46.15
2023-02-14T10:59:25.815Z,46.13
2023-02-14T11:01:54.758Z,45.05
2023-02-14T11:04:24.117Z,47.70
2023-02-14T11:06:51.843Z,46.97
2023-02-14T11:09:19.689Z,48.53
2023-02-14T11:11:56.079Z,45.00
2023-02-14T11:14:33.578Z,44.35
2023-02-14T11:17:20.126Z,45.38
2023-02-14T11:19:58.172Z,46.90
2023-02-14T11:22:33.097Z,43.05
2023-02-14T11:25:21.340Z,50.70
2023-02-14T11:27:51.114Z,45.63
2023-02-14T11:30:28.221Z,45.55
2023-02-14T11:32:56.503Z,46.53
2023-02-14T11:35:33.794Z,45.50
2023-02-14T11:38:06.901Z,48.65
2023-02-14T11:40:36.448Z,45.72
2023-02-14T11:43:15.359Z,45.63
2023-02-14T11:45:43.711Z,43.60
2023-02-14T11:48:37.703Z,42.13
2023-02-14T11:51:13.980Z,44.60
2023-02-14T11:53:55.945Z,41.67
2023-02-14T11:56:24.199Z,47.40
2023-02-14T11:58:58.194Z,45.17
2023-02-14T12:01:29.870Z,47.15
2023-02-14T12:04:02.601Z,42.10
2023-02-14T12:06:32.509Z,41.10
2023-02-14T12:09:23.407Z,46.75
2023-02-14T12:11:57.804Z,44.60
2023-02-14T12:14:35.624Z,41.85
2023-02-14T12:17:24.883Z,46.20
2023-02-14T12:20:03.750Z,42.67
2023-02-14T12:22:35.774Z,42.45
2023-02-14T12:25:25.624Z,42.87
2023-02-14T12:27:58.774Z,41.90
2023-02-14T12:30:29.243Z,40.42
2023-02-14T12:32:56.871Z,40.13
2023-02-14T12:35:44.877Z,39.47
2023-02-14T12:38:29.787Z,41.20
2023-02-14T12:41:18.580Z,40.60
2023-02-14T12:44:04.629Z,39.08
2023-02-14T12:46:53.332Z,40.53
2023-02-14T12:49:49.645Z,42.88
2023-02-14T12:52:51.688Z,38.97
2023-02-14T12:55:49.657Z,40.88
2023-02-14T12:59:05.256Z,40.72
2023-02-14T13:02:00.135Z,39.40
2023-02-14T13:04:35.321Z,41.85
2023-02-14T13:07:29.896Z,41.00
2023-02-14T13:10:14.694Z,38.92
2023-02-14T13:13:02.313Z,42.00
2023-02-14T13:15:41.114Z,38.65
2023-02-14T13:18:10.879Z,36.38
2023-02-14T13:20:50.573Z,37.97
2023-02-14T13:23:30.687Z,39.30
2023-02-14T13:26:29.102Z,36.53
2023-02-14T13:29:11.743Z,38.28
2023-02-14T13:31:39.442Z,37.55
2023-02-14T13:34:27.293Z,37.60
2023-02-14T13:36:56.450Z,38.50
2023-02-14T13:39:28.091Z,37.55
2023-02-14T13:41:55.007Z,40.33
2023-02-14T13:44:48.020Z,40.17
2023-02-14T13:47:26.354Z,37.37
2023-02-14T13:49:59.783Z,38.08
2023-02-14T13:52:46.827Z,43.47
2023-02-14T13:55:23.328Z,37.30
2023-02-14T13:58:05.928Z,39.17
2023-02-14T14:00:42.047Z,38.23
2023-02-14T14:03:34.149Z,39.58
2023-02-14T14:06:10.749Z,38.72
2023-02-14T14:08:46.194Z,38.33
2023-02-14T14:11:22.253Z,39.85
2023-02-14T14:13:56.763Z,35.90
2023-02-14T14:16:23.644Z,36.63
2023-02-14T14:18:52.658Z,40.05
2023-02-14T14:21:34.369Z,39.45
2023-02-14T14:24:27.579Z,39.55
2023-02-14T14:27:16.178Z,39.37
2023-02-14T14:30:06.671Z,39.28
2023-02-14T14:32:38.325Z,40.92
2023-02-14T14:35:25.545Z,39.63
2023-02-14T14:37:57.845Z,38.95
2023-02-14T14:40:25.639Z,40.23
2023-02-14T14:42:53.941Z,38.33
2023-02-14T14:45:24.982Z,40.90
2023-02-14T14:47:55.669Z,42.47
2023-02-14T14:50:24.816Z,39.67
2023-02-14T14:52:55.016Z,41.03
2023-02-14T14:55:28.117Z,40.28
2023-02-14T14:58:04.137Z,42.03
2023-02-14T15:00:34.560Z,41.08
2023-02-14T15:03:01.353Z,40.47
2023-02-14T15:05:37.342Z,37.93
2023-02-14T15:08:24.908Z,39.40
2023-02-14T15:10:59.865Z,38.17
2023-02-14T15:13:51.135Z,37.88
2023-02-14T15:16:28.285Z,40.45
2023-02-14T15:19:16.123Z,38.63
2023-02-14T15:21:44.734Z,40.85
2023-02-14T15:24:15.573Z,42.60
2023-02-14T15:26:45.590Z,41.30
2023-02-14T15:29:22.150Z,40.40
2023-02-14T15:31:49.710Z,39.00
2023-02-14T15:34:18.619Z,41.47
2023-02-14T15:36:53.998Z,43.33
2023-02-14T15:39:25.749Z,38.30
2023-02-14T15:41:55.617Z,40.95
2023-02-14T15:44:24.451Z,40.03
2023-02-14T15:47:03.262Z,40.72
2023-02-14T15:49:41.181Z,40.55
2023-02-14T15:52:12.544Z,42.20
2023-02-14T15:54:43.543Z,42.67
2023-02-14T15:57:24.243Z,39.00
2023-02-14T15:59:51.762Z,40.05
2023-02-14T16:02:38.065Z,43.45
2023-02-14T16:05:17.600Z,42.13
2023-02-14T16:08:04.893Z,40.65
2023-02-14T16:10:37.798Z,45.97
2023-02-14T16:13:09.362Z,40.58
2023-02-14T16:15:38.743Z,42.75
2023-02-14T16:18:33.365Z,41.42
2023-02-14T16:21:16.976Z,46.97
2023-02-14T16:24:07.830Z,41.33
2023-02-14T16:26:38.193Z,43.45
2023-02-14T16:29:09.943Z,43.55
2023-02-14T16:31:48.561Z,48.25
2023-02-14T16:34:24.162Z,49.35
2023-02-14T16:36:50.915Z,47.50
2023-02-14T16:39:20.450Z,49.72
2023-02-14T16:41:48.591Z,53.05
2023-02-14T16:44:17.614Z,50.85
2023-02-14T16:46:46.009Z,51.47
2023-02-14T16:49:15.926Z,48.47
2023-02-14T16:51:44.985Z,46.40
2023-02-14T16:54:19.188Z,44.17
2023-02-14T16:56:51.305Z,46.95
2023-02-14T16:59:18.013Z,48.83
2023-02-14T17:01:44.840Z,48.10
2023-02-14T17:04:11.971Z,51.80
2023-02-14T17:06:42.032Z,50.65
2023-02-14T17:09:13.193Z,53.40
2023-02-14T17:11:45.436Z,57.55
2023-02-14T17:14:17.891Z,48.33
2023-02-14T17:16:44.718Z,51.30
2023-02-14T17:19:11.944Z,53.83
2023-02-14T17:21:40.295Z,58.38
2023-02-14T17:24:07.132Z,55.58
2023-02-14T17:26:33.899Z,54.80
2023-02-14T17:29:00.704Z,55.55
2023-02-14T17:31:28.648Z,57.60
2023-02-14T17:33:56.062Z,56.28
2023-02-14T17:36:24.174Z,57.00
2023-02-14T17:38:52.994Z,56.53
2023-02-14T17:41:25.188Z,65.78
2023-02-14T17:44:00.174Z,61.72
2023-02-14T17:46:31.607Z,55.80
2023-02-14T17:49:02.507Z,63.33
2023-02-14T17:51:29.595Z,62.03
2023-02-14T17:53:58.821Z,56.28
2023-02-14T17:56:26.583Z,59.20
2023-02-14T17:58:55.132Z,56.80
2023-02-14T18:01:26.893Z,59.50
2023-02-14T18:03:54.742Z,54.63
2023-02-14T18:06:22.104Z,55.25
2023-02-14T18:08:50.520Z,61.83
2023-02-14T18:11:18.422Z,59.30
2023-02-14T18:13:45.512Z,56.50
2023-02-14T18:16:15.832Z,56.17
2023-02-14T18:18:42.894Z,61.15
2023-02-14T18:21:11.892Z,60.78
2023-02-14T18:23:39.061Z,58.85
2023-02-14T18:26:10.265Z,65.85
2023-02-14T18:28:37.509Z,65.13
2023-02-14T18:31:05.460Z,63.80
2023-02-14T18:33:32.271Z,62.60
2023-02-14T18:36:02.608Z,60.88
2023-02-14T18:38:29.523Z,60.70
2023-02-14T18:40:56.418Z,60.87
2023-02-14T18:43:23.177Z,66.63
2023-02-14T18:45:49.959Z,65.85
2023-02-14T18:48:18.776Z,68.00
2023-02-14T18:50:45.764Z,67.15
2023-02-14T18:53:12.470Z,72.50
2023-02-14T18:55:39.194Z,75.10
2023-02-14T18:58:07.862Z,76.32
2023-02-14T19:00:35.124Z,74.00
2023-02-14T19:03:01.889Z,75.70
2023-02-14T19:05:28.876Z,70.83
2023-02-14T19:07:58.153Z,66.20
2023-02-14T19:10:24.893Z,71.97
2023-02-14T19:12:52.579Z,67.68
2023-02-14T19:15:19.367Z,68.70
2023-02-14T19:17:46.212Z,65.40
2023-02-14T19:20:13.473Z,69.10
2023-02-14T19:22:42.125Z,62.35
2023-02-14T19:25:09.203Z,68.30
2023-02-14T19:27:37.210Z,68.15
2023-02-14T19:30:04.988Z,67.90
2023-02-14T19:32:31.849Z,67.80
2023-02-14T19:34:58.659Z,62.00
2023-02-14T19:37:26.731Z,69.25
2023-02-14T19:39:53.665Z,75.05
2023-02-14T19:42:20.421Z,69.30
2023-02-14T19:44:47.508Z,74.43
2023-02-14T19:47:27.174Z,75.47
2023-02-14T19:50:00.507Z,76.35
2023-02-14T19:52:28.292Z,75.15
2023-02-14T19:54:58.389Z,63.67
2023-02-14T19:57:25.333Z,69.68
2023-02-14T19:59:52.337Z,66.82
2023-02-14T20:02:19.946Z,70.15
2023-02-14T20:04:46.952Z,94.72
2023-02-14T20:07:13.676Z,80.20
2023-02-14T20:09:40.350Z,78.53
2023-02-14T20:12:07.372Z,73.57
2023-02-14T20:14:50.481Z,57.50
2023-02-14T20:17:18.143Z,58.38
2023-02-14T20:19:45.033Z,55.80
2023-02-14T20:22:11.769Z,63.78
2023-02-14T20:24:38.717Z,75.80
2023-02-14T20:27:05.716Z,73.90
2023-02-14T20:29:33.165Z,80.20
2023-02-14T20:32:03.543Z,80.00
2023-02-14T20:34:30.576Z,67.03
2023-02-14T20:37:01.672Z,66.18
2023-02-14T20:39:31.902Z,73.18
2023-02-14T20:42:02.391Z,67.88
2023-02-14T20:44:29.802Z,72.13
2023-02-14T20:46:58.508Z,73.15
2023-02-14T20:49:27.126Z,73.55
2023-02-14T20:51:54.638Z,74.88
2023-02-14T20:54:24.104Z,84.68
2023-02-14T20:56:51.366Z,75.17
2023-02-14T20:59:27.173Z,79.38
2023-02-14T21:01:55.262Z,83.13
2023-02-14T21:04:22.432Z,83.13
2023-02-14T21:06:49.287Z,81.47
2023-02-14T21:09:18.529Z,82.23
2023-02-14T21:11:45.382Z,80.07
2023-02-14T21:14:12.186Z,84.57
2023-02-14T21:16:39.168Z,77.93
2023-02-14T21:19:06.057Z,76.82
2023-02-14T21:21:36.258Z,82.07
2023-02-14T21:24:06.980Z,82.97
2023-02-14T21:26:34.326Z,86.32
2023-02-14T21:29:01.587Z,83.20
2023-02-14T21:31:28.673Z,84.55
2023-02-14T21:33:57.753Z,83.03
2023-02-14T21:36:26.653Z,85.22
2023-02-14T21:38:58.172Z,85.35
2023-02-14T21:41:27.484Z,90.15
2023-02-14T21:43:56.515Z,89.75
2023-02-14T21:46:27.646Z,86.13
2023-02-14T21:49:35.987Z,88.43
2023-02-14T21:52:03.982Z,91.03
2023-02-14T21:54:30.719Z,86.90
2023-02-14T21:56:57.426Z,85.15
2023-02-14T21:59:24.258Z,90.67
2023-02-14T22:01:51.011Z,89.97
2023-02-14T22:04:17.750Z,90.70
2023-02-14T22:06:44.544Z,87.88
2023-02-14T22:09:14.183Z,86.15
2023-02-14T22:11:41.303Z,88.00
2023-02-14T22:14:08.500Z,93.00
2023-02-14T22:16:38.548Z,92.38
2023-02-14T22:19:06.645Z,80.43
2023-02-14T22:21:33.973Z,76.35
2023-02-14T22:24:01.760Z,79.93
2023-02-14T22:26:31.106Z,72.78
2023-02-14T22:29:00.497Z,82.43
2023-02-14T22:31:30.068Z,77.85
2023-02-14T22:33:57.033Z,84.20
2023-02-14T22:36:24.438Z,84.77
2023-02-14T22:38:51.148Z,82.57
2023-02-14T22:41:24.169Z,90.32
2023-02-14T22:43:52.018Z,96.05
2023-02-14T22:46:23.331Z,90.35
2023-02-14T22:48:51.501Z,88.03
2023-02-14T22:51:42.201Z,90.20
2023-02-14T22:54:13.249Z,85.35
2023-02-14T22:56:43.020Z,84.53
2023-02-14T22:59:28.565Z,89.80
2023-02-14T23:01:55.387Z,88.73
2023-02-14T23:04:24.748Z,95.28
2023-02-14T23:06:53.061Z,87.85
2023-02-14T23:09:20.513Z,86.10
2023-02-14T23:11:47.746Z,82.70
2023-02-14T23:14:34.950Z,74.20
2023-02-14T23:17:24.884Z,78.30
2023-02-14T23:20:10.136Z,62.75
2023-02-14T23:22:39.471Z,55.45
2023-02-14T23:25:09.451Z,54.78
2023-02-14T23:27:39.910Z,64.60
2023-02-14T23:30:09.112Z,53.58
2023-02-14T23:32:36.590Z,49.78
2023-02-14T23:35:03.435Z,54.85
2023-02-14T23:37:30.329Z,57.38
2023-02-14T23:39:57.124Z,58.33
2023-02-14T23:42:23.840Z,53.63
2023-02-14T23:44:50.734Z,52.20
2023-02-14T23:47:17.895Z,48.28
2023-02-14T23:49:45.836Z,55.83
2023-02-14T23:52:13.478Z,50.10
2023-02-14T23:54:40.655Z,50.15
2023-02-14T23:57:08.577Z,44.90
2023-02-14T23:59:35.726Z,62.00
